タシュケント の空港の天気 - METARとTAF

タシケント空港 ( UTTT / TAS ) - ウズベキスタン タシュケント
飛行場実況気象(Metar)
観測時間04/25 19:00 UZT (04/25 14:00 UTC)
風向・風速西 3m/s
視程10km以上
天気現象
全天の4割程度の雲 雲底高度 2010m
気温18℃
湿度52%
気圧1024hPa
METARUTTT 251400Z 26006KT 9999 SCT066CB 18/08 Q1024 R26R/CLRD70 NOSIG
過去の天気等 Google飛行場航空写真 Wunderground天気予報

過去48時間のMETAR

飛行場予報(TAF)
発表時間: 4/25 16:00 UZT (4/25 11:00 UTC)
予報対象時間: 25日17時 UZT ~ 26日17時 UZT
風向・風速西南西 8m/s
視程7,000m
少しの積乱雲 雲底高度 1,520m
全天の8割程度の雲 雲底高度 3,050m
25日17時 UZT ~ 25日23時 UZT に 確率 40% で一時的に
天気現象弱い雷雨
全天の8割程度の積乱雲 雲底高度 1,220m
25日23時 UZT ~ 26日8時 UZT に一時的に
視程3,000m
天気現象もや
TAF UTTT 251100Z 2512/2612 24015KT 7000 FEW050CB BKN100
PROB40 TEMPO 2512/2518 -TSRA BKN040CB
TEMPO 2518/2603 3000 BR